Nortonville, Kansas
Current Conditions -  °F | °C
As of 1:52 PM on Thursday 30 Oct 2014 (Local Time) from KLWC Reporting Station
Clear Clear  
Wind Chill: 21°   Ceiling: Unl
Heat Index: 21°   Visibility: 10mi
Dew Point:   Wind: 24mph
Humidity: 35%   Direction: 330°NNW
Pressure: 30.03"   Gusts: 31mph
Location:  39.42°N, 95.33°W
Report Text: KLWC 301852Z AUTO 33021G27KT 10SM CLR 21/04 A3003 RMK AO2 PK WND 33029/1812 RAE1759 SLP167 P0000 T02060044
Loading
Personal Weather Stations






























Interactive Weather Map
Tropical Storm Tracking
New forecast layout! Learn more

10-Day Weather Forecast

Advertisements
Track Severe Weather on mobile